METAR AND TAF INFORMATION
METAR FOR KPTB
ADDS - METARS form results

(2330 UTC 20 March 2019)
Data provider http://aviationweather.gov/metar/data/
 
METAR text: KPTB 202315Z AUTO 09005KT 10SM -DZ BKN050 OVC070 08/05 A3022 RMK AO2 T00760051
Conditions at: KPTB (PETERSBURG , VA, US) observed 2315 UTC 20 March 2019
Temperature: 7.6°C (46°F)
Dewpoint: 5.1°C (41°F) [RH = 84%]
Pressure (altimeter): 30.22 inches Hg (1023.5 mb)
Winds: from the E (90 degrees) at 6 MPH (5 knots; 2.6 m/s)
Visibility: 10 or more miles (16+ km)
Ceiling: 5000 feet AGL
Clouds: broken clouds at 5000 feet AGL
overcast cloud deck at 7000 feet AGL
Weather: -DZ  (light drizzle)

METAR text: KPTB 202255Z AUTO 09005KT 7SM -RA BKN048 OVC055 08/05 A3023 RMK AO2 P0001 T00800052
Conditions at: KPTB (PETERSBURG , VA, US) observed 2255 UTC 20 March 2019
Temperature: 8.0°C (46°F)
Dewpoint: 5.2°C (41°F) [RH = 82%]
Pressure (altimeter): 30.23 inches Hg (1023.8 mb)
Winds: from the E (90 degrees) at 6 MPH (5 knots; 2.6 m/s)
Visibility: 7 miles (11 km)
Ceiling: 4800 feet AGL
Clouds: broken clouds at 4800 feet AGL
overcast cloud deck at 5500 feet AGL
Weather: -RA  (light rain)

METAR text: KPTB 202235Z AUTO 13003KT 10SM -RA BKN046 BKN050 OVC060 09/05 A3023 RMK AO2 T00860049
Conditions at: KPTB (PETERSBURG , VA, US) observed 2235 UTC 20 March 2019
Temperature: 8.6°C (47°F)
Dewpoint: 4.9°C (41°F) [RH = 78%]
Pressure (altimeter): 30.23 inches Hg (1023.8 mb)
Winds: from the SE (130 degrees) at 3 MPH (3 knots; 1.5 m/s)
Visibility: 10 or more miles (16+ km)
Ceiling: 4600 feet AGL
Clouds: broken clouds at 4600 feet AGL
broken clouds at 5000 feet AGL
overcast cloud deck at 6000 feet AGL
Weather: -RA  (light rain)

 AIRPORT MAP

 RUNWAY INFORMATION
Runway 05 Runway length 5001 ft Runway width 100 ft
Runway elevation 193 ft Runway displaced threshold 0 ft Runway heading 43
Runway 23 Runway length 5001 ft Runway width 100 ft
Runway elevation 190 ft Runway displaced threshold 0 ft Runway heading 223
Runway 14 Runway length 3061 ft Runway width 50 ft
Runway elevation 186 ft Runway displaced threshold 0 ft Runway heading 133
Runway 32 Runway length 3061 ft Runway width 50 ft
Runway elevation 186 ft Runway displaced threshold 0 ft Runway heading 313

 AIRPORT FREQUENCIES
Type APP Name POTOMAC AP Frequency 134.7 MHZ
Type AWOS Name AWOS 3 Frequency 133.325 MHZ
Type DEP Name POTOMAC DE Frequency 134.7 MHZ
Type UNIC Name CTAF/UNICO Frequency 122.7 MHZ

 AIRPORT NEAR NAVIGATION AIDS
Type NDB Name Petersburg Frequency 284 KHZ



Powered by Virtual Airlines Manager [v2.6.2]